sensor_id;sensor_type;location;lat;lon;timestamp;pressure;altitude;pressure_sealevel;temperature;humidity
27864;BME280;15980;51.092;13.916;2023-03-14T00:04:00;96653.94;;;10.60;100.00
27864;BME280;15980;51.092;13.916;2023-03-14T00:14:00;96618.28;;;10.46;100.00
27864;BME280;15980;51.092;13.916;2023-03-14T00:24:01;96579.09;;;10.35;100.00
27864;BME280;15980;51.092;13.916;2023-03-14T00:34:01;96563.03;;;10.26;100.00
27864;BME280;15980;51.092;13.916;2023-03-14T00:44:02;96571.22;;;10.19;100.00
27864;BME280;15980;51.092;13.916;2023-03-14T00:54:02;96590.78;;;10.18;100.00
27864;BME280;15980;51.092;13.916;2023-03-14T01:04:02;96585.34;;;10.32;100.00
27864;BME280;15980;51.092;13.916;2023-03-14T01:14:03;96595.97;;;10.58;98.89
27864;BME280;15980;51.092;13.916;2023-03-14T01:24:05;96576.75;;;10.58;97.54
27864;BME280;15980;51.092;13.916;2023-03-14T01:34:06;96554.44;;;10.60;97.82
27864;BME280;15980;51.092;13.916;2023-03-14T01:44:10;96568.13;;;10.74;95.96
27864;BME280;15980;51.092;13.916;2023-03-14T01:54:28;96565.00;;;10.72;95.39
27864;BME280;15980;51.092;13.916;2023-03-14T02:04:33;96554.81;;;10.65;94.79
27864;BME280;15980;51.092;13.916;2023-03-14T02:14:36;96562.66;;;10.60;94.23
27864;BME280;15980;51.092;13.916;2023-03-14T02:34:49;96549.72;;;10.57;91.17
27864;BME280;15980;51.092;13.916;2023-03-14T02:54:53;96541.06;;;10.83;85.24
27864;BME280;15980;51.092;13.916;2023-03-14T03:04:53;96546.53;;;11.12;82.37
27864;BME280;15980;51.092;13.916;2023-03-14T03:14:53;96531.59;;;11.23;80.54
27864;BME280;15980;51.092;13.916;2023-03-14T03:24:54;96510.03;;;11.29;80.60
27864;BME280;15980;51.092;13.916;2023-03-14T03:34:54;96520.22;;;11.25;80.28
27864;BME280;15980;51.092;13.916;2023-03-14T03:44:54;96524.53;;;11.19;79.70
27864;BME280;15980;51.092;13.916;2023-03-14T03:54:54;96523.34;;;11.27;78.66
27864;BME280;15980;51.092;13.916;2023-03-14T04:04:55;96514.75;;;11.18;78.76
27864;BME280;15980;51.092;13.916;2023-03-14T04:14:55;96493.25;;;10.98;79.71
27864;BME280;15980;51.092;13.916;2023-03-14T04:24:55;96505.03;;;10.81;80.25
27864;BME280;15980;51.092;13.916;2023-03-14T04:34:56;96502.69;;;10.87;79.98
27864;BME280;15980;51.092;13.916;2023-03-14T04:44:56;96485.81;;;10.92;78.81
27864;BME280;15980;51.092;13.916;2023-03-14T04:54:56;96468.59;;;10.88;78.07
27864;BME280;15980;51.092;13.916;2023-03-14T05:04:56;96466.22;;;10.90;76.93
27864;BME280;15980;51.092;13.916;2023-03-14T05:14:57;96459.97;;;10.79;76.83
27864;BME280;15980;51.092;13.916;2023-03-14T05:24:57;96460.78;;;10.68;76.29
27864;BME280;15980;51.092;13.916;2023-03-14T05:34:57;96469.38;;;10.74;75.84
27864;BME280;15980;51.092;13.916;2023-03-14T05:44:58;96459.22;;;10.71;75.18
27864;BME280;15980;51.092;13.916;2023-03-14T05:54:58;96457.63;;;10.74;75.09
27864;BME280;15980;51.092;13.916;2023-03-14T06:04:58;96459.97;;;10.75;74.94
27864;BME280;15980;51.092;13.916;2023-03-14T06:14:59;96459.56;;;10.80;74.87
27864;BME280;15980;51.092;13.916;2023-03-14T06:24:59;96468.97;;;10.93;74.24
27864;BME280;15980;51.092;13.916;2023-03-14T06:34:59;96490.88;;;11.00;73.61
27864;BME280;15980;51.092;13.916;2023-03-14T06:44:59;96499.84;;;11.15;73.10
27864;BME280;15980;51.092;13.916;2023-03-14T06:55:00;96524.06;;;11.45;72.39
27864;BME280;15980;51.092;13.916;2023-03-14T07:05:00;96515.31;;;11.72;72.15
27864;BME280;15980;51.092;13.916;2023-03-14T07:15:01;96520.41;;;11.70;71.68
27864;BME280;15980;51.092;13.916;2023-03-14T07:25:01;96527.50;;;11.71;71.42
27864;BME280;15980;51.092;13.916;2023-03-14T07:35:01;96535.75;;;11.71;71.43
27864;BME280;15980;51.092;13.916;2023-03-14T07:45:02;96522.78;;;11.78;71.49
27864;BME280;15980;51.092;13.916;2023-03-14T07:55:02;96542.72;;;11.89;71.61
27864;BME280;15980;51.092;13.916;2023-03-14T08:05:03;96521.38;;;12.15;70.80
27864;BME280;15980;51.092;13.916;2023-03-14T08:15:04;96521.75;;;12.17;70.09
27864;BME280;15980;51.092;13.916;2023-03-14T08:25:05;96513.19;;;12.60;68.54
27864;BME280;15980;51.092;13.916;2023-03-14T08:35:06;96506.88;;;13.00;67.21
27864;BME280;15980;51.092;13.916;2023-03-14T08:45:07;96505.28;;;13.71;64.94
27864;BME280;15980;51.092;13.916;2023-03-14T08:55:09;96521.69;;;13.81;61.56
27864;BME280;15980;51.092;13.916;2023-03-14T09:05:10;96513.09;;;13.76;59.58
27864;BME280;15980;51.092;13.916;2023-03-14T09:15:10;96520.69;;;13.34;61.36
27864;BME280;15980;51.092;13.916;2023-03-14T09:25:11;96520.13;;;13.80;61.15
27864;BME280;15980;51.092;13.916;2023-03-14T09:35:11;96522.75;;;13.91;61.23
27864;BME280;15980;51.092;13.916;2023-03-14T09:45:29;96528.59;;;13.66;62.13
27864;BME280;15980;51.092;13.916;2023-03-14T09:55:31;96526.19;;;13.68;62.77
27864;BME280;15980;51.092;13.916;2023-03-14T10:05:32;96530.72;;;13.17;63.11
27864;BME280;15980;51.092;13.916;2023-03-14T10:15:34;96538.84;;;12.87;64.18
27864;BME280;15980;51.092;13.916;2023-03-14T10:25:36;96547.41;;;12.96;63.92
27864;BME280;15980;51.092;13.916;2023-03-14T10:35:36;96543.22;;;12.84;64.53
27864;BME280;15980;51.092;13.916;2023-03-14T10:45:39;96545.81;;;13.02;63.52
27864;BME280;15980;51.092;13.916;2023-03-14T10:55:42;96538.28;;;13.06;63.21
27864;BME280;15980;51.092;13.916;2023-03-14T11:05:57;96539.91;;;13.04;62.10
27864;BME280;15980;51.092;13.916;2023-03-14T11:37:25;96526.56;;;13.70;60.94
27864;BME280;15980;51.092;13.916;2023-03-14T11:47:56;96516.41;;;14.21;60.35
27864;BME280;15980;51.092;13.916;2023-03-14T11:58:02;96490.56;;;14.62;58.01
27864;BME280;15980;51.092;13.916;2023-03-14T12:18:36;96456.47;;;14.72;56.69
27864;BME280;15980;51.092;13.916;2023-03-14T12:28:39;96466.38;;;15.13;54.79
27864;BME280;15980;51.092;13.916;2023-03-14T12:38:51;96458.31;;;15.22;54.29
27864;BME280;15980;51.092;13.916;2023-03-14T12:59:18;96456.97;;;14.17;59.02
27864;BME280;15980;51.092;13.916;2023-03-14T13:19:32;96427.91;;;15.02;55.86
27864;BME280;15980;51.092;13.916;2023-03-14T13:29:35;96427.50;;;14.84;55.77
27864;BME280;15980;51.092;13.916;2023-03-14T13:39:39;96428.56;;;14.90;53.77
27864;BME280;15980;51.092;13.916;2023-03-14T13:49:39;96410.63;;;14.98;54.97
27864;BME280;15980;51.092;13.916;2023-03-14T13:59:40;96409.22;;;14.90;56.58
27864;BME280;15980;51.092;13.916;2023-03-14T14:09:42;96425.72;;;14.93;54.81
27864;BME280;15980;51.092;13.916;2023-03-14T14:19:45;96415.31;;;14.81;55.13
27864;BME280;15980;51.092;13.916;2023-03-14T14:29:58;96406.06;;;14.68;55.38
27864;BME280;15980;51.092;13.916;2023-03-14T14:40:05;96394.97;;;14.71;54.81
27864;BME280;15980;51.092;13.916;2023-03-14T14:50:30;96397.34;;;14.03;58.39
27864;BME280;15980;51.092;13.916;2023-03-14T15:00:30;96392.47;;;14.10;56.84
27864;BME280;15980;51.092;13.916;2023-03-14T15:10:31;96394.94;;;14.28;57.56
27864;BME280;15980;51.092;13.916;2023-03-14T15:20:31;96390.63;;;14.04;56.84
27864;BME280;15980;51.092;13.916;2023-03-14T15:30:31;96390.06;;;13.89;57.94
27864;BME280;15980;51.092;13.916;2023-03-14T15:40:32;96402.00;;;13.56;60.02
27864;BME280;15980;51.092;13.916;2023-03-14T15:50:33;96413.59;;;13.40;60.45
27864;BME280;15980;51.092;13.916;2023-03-14T16:00:33;96418.19;;;13.19;61.39
27864;BME280;15980;51.092;13.916;2023-03-14T16:10:34;96429.41;;;13.02;61.43
27864;BME280;15980;51.092;13.916;2023-03-14T16:20:34;96440.03;;;13.00;62.52
27864;BME280;15980;51.092;13.916;2023-03-14T16:30:34;96454.84;;;12.75;63.55
27864;BME280;15980;51.092;13.916;2023-03-14T16:40:34;96525.03;;;12.49;66.89
27864;BME280;15980;51.092;13.916;2023-03-14T16:50:35;96559.13;;;10.77;80.47
27864;BME280;15980;51.092;13.916;2023-03-14T17:00:35;96710.41;;;6.96;95.10
27864;BME280;15980;51.092;13.916;2023-03-14T17:10:36;96761.22;;;6.42;99.15
27864;BME280;15980;51.092;13.916;2023-03-14T17:20:37;96821.09;;;6.04;99.29
27864;BME280;15980;51.092;13.916;2023-03-14T17:30:37;96922.19;;;5.55;100.00
27864;BME280;15980;51.092;13.916;2023-03-14T17:40:38;97076.03;;;3.45;98.43
27864;BME280;15980;51.092;13.916;2023-03-14T17:50:38;97128.50;;;2.48;100.00
27864;BME280;15980;51.092;13.916;2023-03-14T18:00:38;97152.09;;;2.39;100.00
27864;BME280;15980;51.092;13.916;2023-03-14T18:10:39;97201.53;;;2.57;99.17
27864;BME280;15980;51.092;13.916;2023-03-14T18:20:39;97267.09;;;2.25;100.00
27864;BME280;15980;51.092;13.916;2023-03-14T18:30:40;97290.91;;;2.48;100.00
27864;BME280;15980;51.092;13.916;2023-03-14T18:40:40;97310.84;;;2.35;99.43
27864;BME280;15980;51.092;13.916;2023-03-14T18:50:41;97361.16;;;2.28;99.37
27864;BME280;15980;51.092;13.916;2023-03-14T19:00:41;97381.69;;;2.11;99.42
27864;BME280;15980;51.092;13.916;2023-03-14T19:10:41;97396.50;;;2.23;99.16
27864;BME280;15980;51.092;13.916;2023-03-14T19:20:42;97429.78;;;2.40;99.09
27864;BME280;15980;51.092;13.916;2023-03-14T19:30:42;97465.28;;;2.47;99.39
27864;BME280;15980;51.092;13.916;2023-03-14T19:40:43;97487.63;;;2.70;98.75
27864;BME280;15980;51.092;13.916;2023-03-14T19:50:43;97501.63;;;2.81;98.87
27864;BME280;15980;51.092;13.916;2023-03-14T20:00:44;97526.34;;;2.71;98.96
27864;BME280;15980;51.092;13.916;2023-03-14T20:10:44;97559.72;;;2.49;98.97
27864;BME280;15980;51.092;13.916;2023-03-14T20:20:45;97577.59;;;2.59;98.11
27864;BME280;15980;51.092;13.916;2023-03-14T20:30:45;97601.94;;;2.50;97.19
27864;BME280;15980;51.092;13.916;2023-03-14T20:40:45;97611.47;;;2.39;96.83
27864;BME280;15980;51.092;13.916;2023-03-14T20:50:46;97646.00;;;2.33;94.91
27864;BME280;15980;51.092;13.916;2023-03-14T21:00:48;97663.03;;;2.34;94.69
27864;BME280;15980;51.092;13.916;2023-03-14T21:10:50;97665.72;;;2.25;95.05
27864;BME280;15980;51.092;13.916;2023-03-14T21:20:52;97704.75;;;2.10;94.80
27864;BME280;15980;51.092;13.916;2023-03-14T21:30:53;97725.81;;;1.91;94.07
27864;BME280;15980;51.092;13.916;2023-03-14T21:40:57;97726.59;;;1.69;93.65
27864;BME280;15980;51.092;13.916;2023-03-14T21:50:57;97743.72;;;1.65;93.66
27864;BME280;15980;51.092;13.916;2023-03-14T22:01:02;97768.78;;;1.56;93.05
27864;BME280;15980;51.092;13.916;2023-03-14T22:11:05;97785.34;;;1.41;93.63
27864;BME280;15980;51.092;13.916;2023-03-14T22:21:06;97800.38;;;1.34;92.39
27864;BME280;15980;51.092;13.916;2023-03-14T22:31:08;97817.69;;;1.33;92.48
27864;BME280;15980;51.092;13.916;2023-03-14T22:41:08;97843.19;;;1.26;91.65
27864;BME280;15980;51.092;13.916;2023-03-14T22:51:10;97870.22;;;1.13;92.82
27864;BME280;15980;51.092;13.916;2023-03-14T23:01:12;97869.09;;;1.00;91.63
27864;BME280;15980;51.092;13.916;2023-03-14T23:11:13;97878.25;;;0.85;92.05
27864;BME280;15980;51.092;13.916;2023-03-14T23:21:18;97894.84;;;0.79;92.53
27864;BME280;15980;51.092;13.916;2023-03-14T23:31:19;97907.84;;;0.77;91.90
27864;BME280;15980;51.092;13.916;2023-03-14T23:41:20;97907.84;;;0.77;91.19
27864;BME280;15980;51.092;13.916;2023-03-14T23:51:21;97924.72;;;0.69;89.79
